Flight Track Log - Related Links

Times and Time Zones

All times are in EDT time to prevent confusion due to time zone crossing. See the UAL5887 flight status page for this flight to view local times or setup timezone preferences in your user account.

Time Position Orientation Groundspeed Altitude Reporting Facility
EDT Latitude Longitude Course Direction KTS km/h feet Rate Location/Type
Fri 08:17:29 36.1500 -86.6667 11° North 167 309 1,200  Level Nashville TRACON
Fri 08:18:41 36.2167 -86.6500 11° North 232 430 3,300 1,864 Climbing Nashville TRACON
Fri 08:19:41 36.2833 -86.6167 22° Northeast 277 513 5,300 1,958 Climbing Nashville TRACON
Fri 08:21:05 36.3739 -86.5706 22° Northeast 312 578 8,000 1,833 Climbing Memphis Center
Fri 08:22:05 36.4581 -86.5306 21° North 312 578 9,700 1,200 Climbing Memphis Center
Fri 08:23:05 36.5506 -86.4875 21° North 338 626 10,400 800 Climbing Memphis Center
Fri 08:24:05 36.6572 -86.4358 21° North 385 713 11,300 1,050 Climbing Memphis Center
Fri 08:25:05 36.7700 -86.3786 22° Northeast 421 779 12,500 1,250 Climbing Memphis Center
Fri 08:26:05 36.8828 -86.3211 22° Northeast 427 790 13,800 1,337 Climbing Memphis Center
Fri 08:28:00 37.0981 -86.2131 22° Northeast 444 822 16,400 1,398 Climbing Indianapolis Center
Fri 08:29:01 37.2336 -86.1428 22° Northeast 447 827 17,900 1,415 Climbing Indianapolis Center
Fri 08:30:03 37.3481 -86.0711 26° Northeast 455 843 19,300 1,171 Climbing Indianapolis Center
Fri 08:31:04 37.4639 -85.9972 27° Northeast 462 856 20,300 984 Climbing Indianapolis Center
Fri 08:32:05 37.5792 -85.9231 27° Northeast 472 874 21,300 976 Climbing Indianapolis Center
Fri 08:33:07 37.7000 -85.8436 27° Northeast 482 893 22,300 976 Climbing Indianapolis Center
Fri 08:34:08 37.8269 -85.7747 23° Northeast 496 919 23,300 976 Climbing Indianapolis Center
Fri 08:35:10 37.9586 -85.7633 North 482 893 24,300 976 Climbing Indianapolis Center
Fri 08:36:11 38.0908 -85.7600 North 477 884 25,300 984 Climbing Indianapolis Center
Fri 08:37:12 38.2250 -85.7558 North 479 887 26,300 1,024 Climbing Indianapolis Center
Fri 08:38:14 38.3883 -85.7494 North 486 900 27,400 1,024 Climbing Indianapolis Center
Fri 08:39:15 38.5250 -85.7447 North 491 909 28,400 984 Climbing Indianapolis Center
Fri 08:40:16 38.6619 -85.7408 North 492 911 29,400 780 Climbing Indianapolis Center
Fri 08:41:18 38.8008 -85.7356 North 497 921 30,000 293 Climbing Indianapolis Center
Fri 08:42:19 38.9469 -85.7317 North 520 962 30,000  Level Indianapolis Center
Fri 08:43:21 39.1003 -85.7269 North 544 1007 30,000  Level Indianapolis Center
Fri 08:44:22 39.2561 -85.7194 North 556 1030 30,000 -194 Level Indianapolis Center
Fri 08:45:25 39.4136 -85.7158 North 564 1044 29,600 -585 Descending Indianapolis Center
Fri 08:46:25 39.5719 -85.7117 North 567 1049 28,800 -793 Descending Indianapolis Center
Fri 08:47:26 39.7314 -85.7053 North 561 1040 28,000 -390 Descending Indianapolis Center
Fri 08:48:28 39.9161 -85.6983 North 562 1041 28,000 -341 Level Indianapolis Center
Fri 08:49:29 40.0725 -85.6939 North 557 1032 27,300 -767 Descending Indianapolis Center
Fri 08:49:54 40.1253 -85.6911 North 551 1020 26,900 -897 Descending Chicago Center
Fri 08:50:56 40.2792 -85.6869 North 551 1020 26,000 -976 Descending Chicago Center
Fri 08:51:57 40.4369 -85.6800 North 563 1043 24,900 -976 Descending Chicago Center
Fri 08:52:59 40.5856 -85.7089 352° North 544 1007 24,000 -919 Descending Chicago Center
Fri 08:54:01 40.7217 -85.7697 341° North 519 961 23,000 -968 Descending Chicago Center
Fri 08:55:03 40.8547 -85.8319 341° North 509 943 22,000 -878 Descending Chicago Center
Fri 08:56:04 40.9875 -85.9450 327° Northwest 471 872 21,200 -1,073 Descending Chicago Center
Fri 08:57:06 41.0772 -86.0564 317° Northwest 445 824 19,800 -1,355 Descending Chicago Center
Fri 08:58:08 41.1647 -86.1667 317° Northwest 434 803 18,400 -1,512 Descending Chicago Center
Fri 08:59:09 41.2500 -86.2739 317° Northwest 423 784 16,700 -1,659 Descending Chicago Center
Fri 09:00:11 41.3294 -86.3750 316° Northwest 400 740 15,000 -1,935 Descending Chicago Center
Fri 09:01:13 41.4000 -86.4647 316° Northwest 358 663 12,700 -1,463 Descending Chicago Center
Fri 09:02:14 41.4742 -86.5597 316° Northwest 366 678 12,000 -293 Descending Chicago Center
Fri 09:03:16 41.5478 -86.6550 316° Northwest 369 684 12,100 48 Climbing Chicago Center
Fri 09:04:18 41.6267 -86.7539 317° Northwest 370 686 12,100  Level Chicago Center
Fri 09:05:19 41.7414 -86.8042 342° North 386 715 12,100  Level Chicago Center
Fri 09:06:21 41.8481 -86.8269 351° North 389 721 12,100 -435 Level Chicago Center
Fri 09:07:23 41.9128 -86.9228 312° West 354 655 11,200 -976 Descending Chicago Center
Fri 09:08:24 41.9658 -87.0272 304° West 345 639 10,100 -732 Descending Chicago Center
Fri 09:09:26 41.9869 -87.1233 286° West 279 517 9,700 -1,016 Descending Chicago Center
Fri 09:10:28 41.9811 -87.2081 265° West 236 438 8,000 -1,306 Descending Chicago Center
Fri 09:11:30 41.9819 -87.3142 271° West 234 433 7,000 -526 Descending Chicago Center
Fri 09:12:22 41.9833 -87.3833 272° West 232 430 7,000 -54 Level Chicago TRACON
Fri 09:13:22 41.9833 -87.4667 270° West 227 420 6,900 -600 Descending Chicago TRACON
Fri 09:14:22 41.9833 -87.5500 270° West 230 426 5,800 -1,100 Descending Chicago TRACON
Fri 09:15:22 41.9833 -87.6500 270° West 223 414 4,700 -1,250 Descending Chicago TRACON
Fri 09:16:22 41.9833 -87.7167 270° West 211 391 3,300 -1,250 Descending Chicago TRACON
Fri 09:17:22 41.9833 -87.7833 270° West 168 311 2,200 -942 Descending Chicago TRACON
Fri 09:18:23 41.9833 -87.8333 270° West 132 245 1,400 -787 Descending Chicago TRACON
Fri 09:20:00 41.9667 -87.9000 270° West  Level FlightAware Approximate

Login

Don't have an account? Register now (free) for customized features, flight alerts, and more!